Time;durP1;ratioP1;P1;durP2;ratioP2;P2;SDS_P1;SDS_P2;PMS_P1;PMS_P2;Temp;Humidity;BMP_temperature;BMP_pressure;BME280_temperature;BME280_humidity;BME280_pressure;Samples;Min_cycle;Max_cycle;Signal;HPM_P1;HPM_P2
2024/04/19 00:01:26;;;;;;;51.30;24.80;;;;;;;30.93;87.41;100739.09;5389347;26;68449;-31
2024/04/19 00:03:57;;;;;;;32.37;23.93;;;;;;;30.94;89.61;100751.56;5402881;26;64963;-31
2024/04/19 00:06:28;;;;;;;30.75;23.77;;;;;;;30.94;87.56;100746.16;5405910;26;67174;-32
2024/04/19 00:09:00;;;;;;;39.88;24.77;;;;;;;30.98;88.61;100758.22;5391181;26;64355;-33
2024/04/19 00:11:31;;;;;;;36.85;26.08;;;;;;;31.01;89.62;100755.03;5376889;26;68437;-32
2024/04/19 00:14:02;;;;;;;39.92;25.25;;;;;;;31.02;87.79;100751.28;5392647;26;63767;-31
2024/04/19 00:16:33;;;;;;;37.60;25.90;;;;;;;30.99;88.95;100749.00;5405906;26;68877;-30
2024/04/19 00:19:05;;;;;;;34.03;23.63;;;;;;;31.06;86.46;100755.19;5391108;26;64998;-32
2024/04/19 00:21:36;;;;;;;33.03;24.20;;;;;;;31.11;87.41;100763.47;5385332;26;67695;-32
2024/04/19 00:24:07;;;;;;;28.38;22.85;;;;;;;31.11;88.36;100754.50;5412073;26;63747;-31
2024/04/19 00:26:39;;;;;;;37.50;23.90;;;;;;;31.14;87.21;100756.78;5421156;26;68071;-31
2024/04/19 00:29:10;;;;;;;35.67;23.77;;;;;;;31.19;86.65;100758.81;5391760;26;64492;-32
2024/04/19 00:31:41;;;;;;;33.50;23.43;;;;;;;31.16;87.55;100771.75;5385108;26;68576;-31
2024/04/19 00:34:12;;;;;;;32.63;22.02;;;;;;;31.22;88.91;100769.19;5372089;26;65024;-30
2024/04/19 00:36:44;;;;;;;29.50;22.38;;;;;;;31.22;87.13;100771.91;5384470;26;68646;-30
2024/04/19 00:39:14;;;;;;;28.50;20.30;;;;;;;31.26;88.29;100775.81;5385742;26;66644;-30
2024/04/19 00:41:45;;;;;;;26.65;21.63;;;;;;;31.27;87.96;100782.91;5392379;26;68024;-32
2024/04/19 00:44:16;;;;;;;24.58;20.52;;;;;;;31.25;86.54;100779.59;5385398;26;65486;-30
2024/04/19 00:46:48;;;;;;;22.80;19.50;;;;;;;31.29;87.29;100776.22;5388510;26;68955;-31
2024/04/19 00:49:32;;;;;;;27.80;19.50;;;;;;;31.35;86.96;100783.44;5388169;26;65029;-31
2024/04/19 00:52:03;;;;;;;;;;;;;;;31.29;90.38;100786.22;5393042;26;67898;-33
2024/04/19 00:54:36;;;;;;;24.43;18.30;;;;;;;31.31;86.66;100773.25;5404008;26;65279;-31
2024/04/19 00:57:08;;;;;;;20.48;16.20;;;;;;;31.40;85.40;100785.50;5405697;26;68597;-31
2024/04/19 00:59:40;;;;;;;19.52;15.82;;;;;;;31.47;84.66;100786.25;5379612;26;64465;-31
2024/04/19 01:02:11;;;;;;;20.85;15.07;;;;;;;31.50;84.46;100785.78;5395818;26;69454;-31
2024/04/19 01:04:42;;;;;;;16.75;14.95;;;;;;;31.50;85.01;100785.78;5377887;26;65522;-33
2024/04/19 01:07:13;;;;;;;18.27;15.00;;;;;;;31.55;83.50;100796.78;5403104;26;68621;-31
2024/04/19 01:09:44;;;;;;;17.50;13.88;;;;;;;31.55;83.72;100791.34;5399549;26;64984;-31
2024/04/19 01:12:15;;;;;;;20.77;14.97;;;;;;;31.58;83.68;100790.06;5408685;26;70412;-31
2024/04/19 01:14:47;;;;;;;19.60;14.80;;;;;;;31.59;84.22;100786.28;5404481;26;63990;-33
2024/04/19 01:17:18;;;;;;;19.85;13.57;;;;;;;31.60;84.48;100788.78;5384776;26;68590;-31
2024/04/19 01:19:49;;;;;;;14.57;13.27;;;;;;;31.64;84.04;100788.34;5407224;26;63710;-32
2024/04/19 01:22:36;;;;;;;14.15;12.70;;;;;;;31.64;83.57;100785.63;5388106;26;69198;-32
2024/04/19 01:25:28;;;;;;;13.87;12.60;;;;;;;31.61;83.58;100779.59;5388166;26;65037;-32
2024/04/19 01:27:59;;;;;;;13.45;12.13;;;;;;;31.69;83.37;100786.59;5388714;26;68912;-31
2024/04/19 01:30:30;;;;;;;16.40;12.50;;;;;;;31.72;83.72;100788.03;5394225;26;65859;-31
2024/04/19 01:33:01;;;;;;;14.45;12.32;;;;;;;31.75;82.26;100788.38;5384668;26;68691;-32
2024/04/19 01:35:32;;;;;;;15.60;12.00;;;;;;;31.76;82.83;100781.06;5388653;26;64090;-32
2024/04/19 01:38:03;;;;;;;13.70;12.10;;;;;;;31.79;83.31;100786.06;5383643;26;68670;-31
2024/04/19 01:40:33;;;;;;;13.15;11.85;;;;;;;31.82;83.16;100785.59;5384532;26;64086;-31
2024/04/19 01:43:04;;;;;;;14.88;12.07;;;;;;;31.81;82.04;100783.94;5367815;26;68819;-31
2024/04/19 01:45:35;;;;;;;15.18;12.05;;;;;;;31.81;82.39;100789.34;5397855;26;65259;-31
2024/04/19 01:48:06;;;;;;;12.52;11.23;;;;;;;31.87;81.56;100788.44;5388796;26;67731;-30
2024/04/19 01:50:37;;;;;;;12.27;11.15;;;;;;;31.90;82.13;100788.00;5387312;26;64808;-31
2024/04/19 01:53:07;;;;;;;11.18;10.15;;;;;;;31.94;82.91;100791.94;5410026;26;68782;-30
2024/04/19 01:55:38;;;;;;;13.48;10.85;;;;;;;31.96;83.17;100795.25;5377082;26;65707;-33
2024/04/19 01:58:28;;;;;;;11.57;10.43;;;;;;;31.96;82.79;100789.81;5385226;26;69047;-31
2024/04/19 02:00:59;;;;;;;11.10;10.23;;;;;;;31.99;81.73;100789.34;5394684;26;65913;-32
2024/04/19 02:03:30;;;;;;;11.13;10.15;;;;;;;32.04;82.43;100789.50;5382919;26;68901;-31
2024/04/19 02:06:12;;;;;;;10.98;10.07;;;;;;;32.05;82.30;100779.47;5370829;26;65053;-32
2024/04/19 02:08:42;;;;;;;;;;;;;;;32.04;82.87;100788.69;5372263;26;67904;-32
2024/04/19 02:11:12;;;;;;;10.98;10.07;;;;;;;32.17;82.07;100788.47;5387910;26;64356;-31
2024/04/19 02:13:43;;;;;;;10.32;9.50;;;;;;;32.16;80.89;100791.44;5377888;26;69579;-32
2024/04/19 02:16:14;;;;;;;10.43;9.30;;;;;;;32.20;81.37;100787.19;5386060;26;63442;-32
2024/04/19 02:18:44;;;;;;;10.43;9.50;;;;;;;32.17;81.27;100765.94;5394608;26;68942;-31
2024/04/19 02:21:15;;;;;;;10.10;8.97;;;;;;;32.24;81.70;100772.91;5394965;26;65578;-32
2024/04/19 02:23:46;;;;;;;10.48;9.57;;;;;;;32.29;81.50;100764.09;5395876;26;68886;-32
2024/04/19 02:26:17;;;;;;;10.30;9.43;;;;;;;32.31;80.89;100772.81;5394609;26;65219;-31
2024/04/19 02:31:37;;;;;;;11.52;8.73;;;;;;;32.36;81.58;100764.78;5394784;26;64814;-31
2024/04/19 02:34:08;;;;;;;10.48;9.57;;;;;;;32.40;80.62;100760.56;5394162;26;68335;-32
2024/04/19 02:36:38;;;;;;;9.75;8.90;;;;;;;32.36;80.40;100742.25;5386808;26;64809;-32
2024/04/19 02:39:11;;;;;;;9.93;9.10;;;;;;;32.44;79.82;100750.88;5388992;26;67938;-31
2024/04/19 02:41:42;;;;;;;9.35;8.45;;;;;;;32.46;80.15;100748.81;5413902;26;65323;-31
2024/04/19 02:44:13;;;;;;;9.52;8.73;;;;;;;32.51;80.41;100744.53;5381678;26;67823;-31
2024/04/19 02:46:43;;;;;;;10.20;8.38;;;;;;;32.54;79.71;100744.06;5377689;26;64584;-31
2024/04/19 02:49:14;;;;;;;16.33;8.50;;;;;;;32.55;80.81;100740.31;5361281;26;68090;-31
2024/04/19 02:51:46;;;;;;;9.35;8.45;;;;;;;32.57;79.46;100738.16;5391399;26;65010;-32
2024/04/19 02:54:16;;;;;;;8.75;8.15;;;;;;;32.60;80.49;100737.72;5391644;26;68210;-31
2024/04/19 02:56:47;;;;;;;9.90;8.98;;;;;;;32.64;79.58;100723.41;5389054;26;63828;-34
2024/04/19 02:59:18;;;;;;;9.00;8.15;;;;;;;32.66;79.54;100728.63;5394632;26;67982;-31
2024/04/19 03:01:49;;;;;;;7.85;7.45;;;;;;;32.69;79.41;100718.09;5389234;26;64632;-32
2024/04/19 03:04:37;;;;;;;8.43;7.72;;;;;;;32.54;80.41;100690.63;5377663;26;68621;-32
2024/04/19 03:07:08;;;;;;;7.75;7.10;;;;;;;32.74;79.75;100714.69;5387595;26;63798;-31
2024/04/19 03:09:39;;;;;;;8.20;7.60;;;;;;;32.74;80.42;100711.16;5402121;26;68807;-31
2024/04/19 03:12:10;;;;;;;8.37;7.67;;;;;;;32.78;79.25;100710.41;5405077;26;65418;-33
2024/04/19 03:14:41;;;;;;;8.77;7.93;;;;;;;32.81;79.94;100707.22;5387260;26;67551;-32
2024/04/19 03:17:12;;;;;;;7.70;7.20;;;;;;;32.85;80.03;100703.00;5384175;26;65547;-32
2024/04/19 03:19:46;;;;;;;7.63;7.07;;;;;;;32.88;79.58;100701.69;5387192;26;69291;-32
2024/04/19 03:22:18;;;;;;;7.72;7.07;;;;;;;32.90;79.12;100699.53;5402426;26;64825;-33
2024/04/19 03:24:48;;;;;;;;;;;;;;;32.87;80.45;100695.41;5383510;26;68300;-33
2024/04/19 03:27:19;;;;;;;8.45;7.75;;;;;;;32.96;79.94;100703.19;5393049;26;66333;-33
2024/04/19 03:29:56;;;;;;;8.27;7.55;;;;;;;32.95;79.81;100691.50;5387407;26;68925;-31
2024/04/19 03:32:27;;;;;;;7.55;7.00;;;;;;;32.99;79.11;100702.72;5401435;26;64327;-32
2024/04/19 03:34:58;;;;;;;7.38;6.88;;;;;;;33.03;78.74;100696.59;5401093;26;67766;-31
2024/04/19 03:37:29;;;;;;;8.02;7.40;;;;;;;33.02;79.06;100685.97;5380899;26;64272;-32
2024/04/19 03:40:00;;;;;;;7.57;6.83;;;;;;;33.08;79.19;100701.31;5377413;26;69364;-31
2024/04/19 03:42:32;;;;;;;7.60;6.95;;;;;;;33.07;78.55;100688.78;5394120;26;64242;-34
2024/04/19 03:47:52;;;;;;;8.15;7.38;;;;;;;33.18;79.44;100690.66;5405594;26;65066;-35
2024/04/19 03:50:23;;;;;;;7.40;6.90;;;;;;;33.20;79.13;100684.97;5405124;26;68900;-31
2024/04/19 03:52:54;;;;;;;7.95;7.10;;;;;;;33.22;78.19;100683.69;5397491;26;65507;-33
2024/04/19 03:55:25;;;;;;;;;;;;;;;33.21;79.92;100684.75;5364939;26;68625;-32
2024/04/19 03:57:55;;;;;;;7.03;6.32;;;;;;;33.29;78.90;100676.22;5388600;26;65644;-32
2024/04/19 04:00:26;;;;;;;7.63;6.95;;;;;;;33.31;78.08;100671.34;5388800;26;68723;-31
2024/04/19 04:02:57;;;;;;;7.13;6.53;;;;;;;33.35;79.15;100660.84;5387891;26;64184;-32
2024/04/19 04:05:28;;;;;;;7.15;6.43;;;;;;;33.37;77.99;100659.50;5363656;26;68579;-31
2024/04/19 04:07:59;;;;;;;6.22;5.82;;;;;;;33.39;78.98;100659.25;5387040;26;65028;-31
2024/04/19 04:10:29;;;;;;;6.32;5.82;;;;;;;33.43;78.50;100654.97;5388237;26;68464;-31
2024/04/19 04:13:00;;;;;;;6.95;6.25;;;;;;;33.43;78.68;100646.00;5385236;26;65106;-32
2024/04/19 04:15:34;;;;;;;6.60;6.20;;;;;;;33.27;77.53;100613.09;5386617;26;69142;-32
2024/04/19 04:18:05;;;;;;;6.78;6.28;;;;;;;33.51;77.81;100640.16;5386515;26;65405;-32
2024/04/19 04:20:36;;;;;;;6.50;6.03;;;;;;;33.53;77.95;100638.06;5386478;26;68623;-31
2024/04/19 04:23:07;;;;;;;6.68;5.93;;;;;;;33.55;78.20;100625.06;5388231;26;63769;-32
2024/04/19 04:25:37;;;;;;;6.43;5.82;;;;;;;33.58;77.64;100619.13;5385692;26;69832;-32
2024/04/19 04:28:08;;;;;;;5.93;5.40;;;;;;;33.62;78.40;100619.44;5398920;26;65168;-33
2024/04/19 04:30:39;;;;;;;5.97;5.55;;;;;;;33.64;77.89;100606.44;5394842;26;67439;-33
2024/04/19 04:33:11;;;;;;;5.63;5.32;;;;;;;33.68;78.54;100604.88;5386934;26;64062;-33
2024/04/19 04:35:44;;;;;;;6.47;5.88;;;;;;;33.66;77.58;100588.81;5385589;26;69177;-31
2024/04/19 04:38:15;;;;;;;6.15;5.65;;;;;;;33.71;77.58;100591.63;5394103;26;64820;-31
2024/04/19 04:40:46;;;;;;;5.87;5.47;;;;;;;33.75;77.71;100591.94;5386538;26;68700;-34
2024/04/19 04:43:17;;;;;;;6.00;5.50;;;;;;;33.77;77.59;100582.47;5388113;26;65035;-34
2024/04/19 04:45:48;;;;;;;5.15;4.85;;;;;;;33.77;77.88;100568.88;5409900;26;68330;-34
2024/04/19 04:48:19;;;;;;;5.97;5.33;;;;;;;33.81;77.37;100570.00;5399673;26;64769;-32
2024/04/19 04:50:50;;;;;;;6.00;5.50;;;;;;;33.83;77.52;100560.78;5398016;26;68868;-34
2024/04/19 04:53:21;;;;;;;5.70;5.30;;;;;;;33.84;78.26;100556.97;5403027;26;64080;-30
2024/04/19 04:55:53;;;;;;;7.13;5.60;;;;;;;33.84;78.00;100546.09;5400501;26;70026;-33
2024/04/19 04:58:24;;;;;;;5.18;4.88;;;;;;;33.93;77.12;100545.41;5354654;26;65049;-32
2024/04/19 05:00:58;;;;;;;5.75;5.35;;;;;;;33.96;77.41;100535.94;5367628;26;67624;-33
2024/04/19 05:03:29;;;;;;;5.38;4.88;;;;;;;34.00;77.03;100531.66;5409172;26;64826;-31
2024/04/19 05:05:59;;;;;;;5.53;5.13;;;;;;;34.02;77.92;100526.78;5415786;26;68840;-32
2024/04/19 05:08:30;;;;;;;5.30;4.90;;;;;;;34.07;76.75;100526.88;5390062;26;63976;-32
2024/04/19 05:11:01;;;;;;;6.03;5.00;;;;;;;34.07;77.75;100510.53;5385332;26;67893;-32
2024/04/19 05:13:35;;;;;;;5.32;4.93;;;;;;;34.12;76.87;100509.78;5405240;26;66477;-33
2024/04/19 05:16:08;;;;;;;4.83;4.53;;;;;;;34.15;77.27;100499.22;5384863;26;68600;-32
2024/04/19 05:18:39;;;;;;;5.30;4.90;;;;;;;34.17;77.88;100507.16;5401108;26;64348;-31
2024/04/19 05:21:10;;;;;;;5.82;5.43;;;;;;;34.18;76.87;100498.72;5420197;26;68616;-32
2024/04/19 05:23:40;;;;;;;4.88;4.57;;;;;;;34.16;76.70;100490.00;5420501;26;64405;-31
2024/04/19 05:26:11;;;;;;;5.40;5.00;;;;;;;34.25;76.62;100488.47;5419668;26;68722;-32
2024/04/19 05:28:42;;;;;;;5.30;4.80;;;;;;;34.25;76.57;100477.59;5413593;26;65417;-33
2024/04/19 05:31:13;;;;;;;4.63;4.32;;;;;;;34.30;76.37;100467.81;5408498;26;68900;-32
2024/04/19 05:33:44;;;;;;;4.90;4.60;;;;;;;34.34;76.55;100468.97;5409480;26;64059;-33
2024/04/19 05:36:15;;;;;;;4.72;4.43;;;;;;;34.40;76.62;100457.06;5388803;26;68960;-31
2024/04/19 05:38:46;;;;;;;5.68;5.28;;;;;;;34.39;76.47;100444.53;5384840;26;64236;-32
2024/04/19 05:41:19;;;;;;;5.57;4.70;;;;;;;34.47;76.72;100452.25;5393512;26;68692;-33
2024/04/19 05:43:50;;;;;;;5.68;4.85;;;;;;;34.52;76.21;100454.19;5388682;26;63930;-31
2024/04/19 05:46:21;;;;;;;4.80;4.47;;;;;;;34.53;76.14;100451.22;5387536;26;68249;-32
2024/04/19 05:48:52;;;;;;;4.53;4.13;;;;;;;34.56;76.07;100450.75;5391004;26;65321;-31
2024/04/19 05:51:25;;;;;;;4.60;4.30;;;;;;;34.60;76.68;100440.16;5388605;26;68777;-32
2024/04/19 05:53:58;;;;;;;5.17;4.67;;;;;;;34.38;76.69;100394.72;5412710;26;64662;-35
2024/04/19 05:56:29;;;;;;;4.53;4.22;;;;;;;34.65;75.83;100427.41;5387844;26;68726;-36
2024/04/19 05:59:00;;;;;;;4.47;4.13;;;;;;;34.69;76.01;100411.38;5364348;26;65176;-32
2024/04/19 06:01:30;;;;;;;4.03;3.83;;;;;;;34.73;76.06;100412.50;5404984;26;68540;-33
2024/04/19 06:04:02;;;;;;;4.30;4.00;;;;;;;34.76;76.10;100411.16;5419452;26;64466;-32
2024/04/19 06:06:34;;;;;;;4.45;4.05;;;;;;;34.82;76.10;100415.56;5417998;26;68865;-32
2024/04/19 06:09:05;;;;;;;4.10;3.90;;;;;;;34.86;76.23;100405.81;5422340;26;65119;-32
2024/04/19 06:11:36;;;;;;;4.57;4.17;;;;;;;34.88;76.11;100406.38;5417116;26;68032;-33
2024/04/19 06:14:07;;;;;;;3.92;3.72;;;;;;;34.90;76.05;100407.75;5399001;26;64879;-32
2024/04/19 06:16:37;;;;;;;3.78;3.58;;;;;;;34.94;75.18;100402.63;5408804;26;68798;-33
2024/04/19 06:19:08;;;;;;;4.25;4.05;;;;;;;34.98;75.20;100392.84;5403077;26;64170;-32
2024/04/19 06:21:39;;;;;;;4.03;3.63;;;;;;;35.02;75.52;100388.53;5397882;26;68516;-34
2024/04/19 06:24:10;;;;;;;5.43;3.78;;;;;;;35.05;75.79;100382.56;5366284;26;64328;-32
2024/04/19 06:26:41;;;;;;;3.97;3.47;;;;;;;35.12;75.10;100377.72;5387004;26;67953;-33
2024/04/19 06:29:13;;;;;;;3.70;3.40;;;;;;;35.14;75.55;100375.56;5374404;26;63993;-32
2024/04/19 06:31:44;;;;;;;3.92;3.63;;;;;;;35.22;75.00;100373.44;5400418;26;68734;-33
2024/04/19 06:34:15;;;;;;;3.72;3.42;;;;;;;35.25;75.35;100370.19;5387785;26;64936;-32
2024/04/19 06:36:46;;;;;;;3.70;3.40;;;;;;;35.28;75.29;100359.56;5386435;26;68234;-32
2024/04/19 06:39:26;;;;;;;3.58;3.38;;;;;;;35.32;74.56;100357.13;5388359;26;65981;-32
2024/04/19 06:41:59;;;;;;;4.03;3.78;;;;;;;35.41;74.65;100352.84;5364284;26;68104;-32
2024/04/19 06:44:30;;;;;;;4.03;3.72;;;;;;;35.44;74.57;100340.53;5388425;26;65217;-32
2024/04/19 06:47:01;;;;;;;3.43;3.23;;;;;;;35.50;74.78;100351.25;5386934;26;68895;-32
2024/04/19 06:49:32;;;;;;;4.53;4.13;;;;;;;35.56;74.73;100344.75;5397246;26;66127;-32
2024/04/19 06:52:03;;;;;;;3.42;3.22;;;;;;;35.61;74.29;100329.47;5396820;26;67684;-32
2024/04/19 06:54:36;;;;;;;3.38;3.17;;;;;;;35.69;74.37;100331.69;5384934;26;65451;-31
2024/04/19 06:57:07;;;;;;;4.03;3.65;;;;;;;35.75;73.99;100326.00;5387045;26;70041;-32
2024/04/19 06:59:42;;;;;;;4.55;2.85;;;;;;;35.45;73.89;100277.56;5365063;26;65107;-31
2024/04/19 07:02:16;;;;;;;2.78;2.65;;;;;;;35.83;74.05;100316.50;5386045;26;69168;-31
2024/04/19 07:04:47;;;;;;;3.03;2.83;;;;;;;35.90;73.57;100308.88;5368387;26;65477;-33
2024/04/19 07:07:18;;;;;;;2.78;2.58;;;;;;;35.95;74.01;100319.81;5406281;26;70086;-32
2024/04/19 07:09:51;;;;;;;3.35;3.05;;;;;;;35.98;73.67;100305.59;5372677;26;64133;-31
2024/04/19 07:12:22;;;;;;;2.65;2.45;;;;;;;36.10;73.53;100320.97;5400603;26;68701;-31
2024/04/19 07:14:54;;;;;;;3.22;2.85;;;;;;;36.15;72.97;100307.31;5388166;26;65417;-32
2024/04/19 07:17:25;;;;;;;2.97;2.78;;;;;;;36.22;73.66;100313.34;5387205;26;68546;-32
2024/04/19 07:19:58;;;;;;;2.63;2.42;;;;;;;36.30;73.03;100314.72;5375375;26;63565;-32
2024/04/19 07:22:28;;;;;;;3.22;2.92;;;;;;;36.32;72.50;100302.44;5375562;26;67793;-31
2024/04/19 07:25:00;;;;;;;2.92;2.72;;;;;;;36.40;72.39;100304.63;5388481;26;66414;-32
2024/04/19 07:27:30;;;;;;;;;;;;;;;36.42;71.37;100316.09;5387398;26;69332;-32
2024/04/19 07:30:11;;;;;;;2.42;2.22;;;;;;;36.60;72.83;100313.94;5385979;26;65261;-32
2024/04/19 07:32:42;;;;;;;2.60;2.40;;;;;;;36.64;72.14;100302.22;5399827;26;67655;-32
2024/04/19 07:35:13;;;;;;;2.58;2.38;;;;;;;36.71;72.56;100299.19;5421431;26;64973;-32
2024/04/19 07:37:44;;;;;;;2.08;1.90;;;;;;;36.77;71.91;100298.09;5386585;26;67820;-32
2024/04/19 07:40:15;;;;;;;2.60;2.40;;;;;;;36.83;71.48;100299.75;5405262;26;65022;-33
2024/04/19 07:42:46;;;;;;;2.42;2.22;;;;;;;36.90;72.10;100292.06;5391040;26;68030;-32
2024/04/19 07:45:23;;;;;;;2.53;2.33;;;;;;;36.89;71.61;100279.50;5404549;26;64280;-33
2024/04/19 07:47:54;;;;;;;2.50;2.30;;;;;;;37.02;71.33;100288.25;5388916;26;69333;-32
2024/04/19 07:50:25;;;;;;;2.60;2.40;;;;;;;37.09;71.63;100288.78;5378226;26;65799;-32
2024/04/19 07:52:55;;;;;;;2.35;2.15;;;;;;;37.13;72.12;100278.91;5404807;26;68412;-32
2024/04/19 07:55:26;;;;;;;3.20;2.40;;;;;;;37.15;71.64;100271.28;5398419;26;64888;-32
2024/04/19 07:57:57;;;;;;;2.55;2.30;;;;;;;37.22;71.60;100271.81;5420452;26;68874;-31
2024/04/19 08:00:28;;;;;;;3.97;2.20;;;;;;;37.27;70.78;100279.97;5387613;26;63994;-31
2024/04/19 08:02:59;;;;;;;2.92;1.98;;;;;;;37.32;70.98;100274.50;5387158;26;68385;-32
2024/04/19 08:05:30;;;;;;;2.73;2.17;;;;;;;37.38;70.61;100274.47;5387177;26;65778;-32
2024/04/19 08:08:00;;;;;;;2.90;2.53;;;;;;;37.41;70.77;100279.38;5386809;26;68686;-32
2024/04/19 08:10:31;;;;;;;2.30;1.85;;;;;;;37.45;70.37;100269.53;5387254;26;64962;-32
2024/04/19 08:13:06;;;;;;;3.13;2.58;;;;;;;37.48;70.88;100268.97;5387181;26;69373;-33
2024/04/19 08:15:37;;;;;;;2.80;2.50;;;;;;;37.52;70.27;100273.63;5387819;26;65104;-32
2024/04/19 08:18:08;;;;;;;2.42;2.28;;;;;;;37.53;70.66;100269.78;5395827;26;68735;-32
2024/04/19 08:20:40;;;;;;;3.15;2.00;;;;;;;37.53;71.00;100258.03;5392349;26;64111;-32
2024/04/19 08:23:11;;;;;;;7.25;2.20;;;;;;;37.59;70.24;100269.78;5388154;26;69196;-31
2024/04/19 08:25:45;;;;;;;4.13;2.22;;;;;;;37.45;69.92;100233.97;5386316;26;64970;-32
2024/04/19 08:28:15;;;;;;;3.20;2.13;;;;;;;37.60;70.05;100266.75;5405149;26;67802;-32
2024/04/19 08:30:47;;;;;;;2.20;2.10;;;;;;;37.65;70.39;100268.66;5385127;26;65594;-32
2024/04/19 08:33:18;;;;;;;2.10;1.90;;;;;;;37.68;69.97;100277.09;5383764;26;68617;-33
2024/04/19 08:35:57;;;;;;;;;;;;;;;37.59;69.06;100269.78;5408964;26;64152;-33
2024/04/19 08:38:29;;;;;;;2.47;1.63;;;;;;;37.71;69.70;100268.31;5385386;26;69173;-34
2024/04/19 08:41:02;;;;;;;;;;;;;;;37.64;69.13;100273.31;5404871;26;65086;-33
2024/04/19 08:43:35;;;;;;;2.72;1.88;;;;;;;37.77;70.48;100277.31;5365350;26;68349;-33
2024/04/19 08:46:08;;;;;;;2.25;2.00;;;;;;;37.75;70.09;100268.56;5382778;26;64287;-33
2024/04/19 08:48:42;;;;;;;2.17;2.08;;;;;;;37.72;70.49;100259.03;5385964;26;68789;-34
2024/04/19 08:51:14;;;;;;;4.47;2.30;;;;;;;37.75;69.86;100268.56;5388285;26;65967;-32
2024/04/19 08:53:58;;;;;;;4.80;1.88;;;;;;;37.77;70.53;100266.38;5400536;26;69235;-32
2024/04/19 08:56:31;;;;;;;2.08;1.83;;;;;;;37.78;70.10;100277.06;5384600;26;64598;-33
2024/04/19 08:59:03;;;;;;;3.38;2.25;;;;;;;37.60;70.38;100244.84;5374727;26;69464;-36
2024/04/19 09:01:34;;;;;;;2.08;1.88;;;;;;;37.76;70.57;100271.03;5414531;26;64832;-33
2024/04/19 09:04:07;;;;;;;2.20;1.73;;;;;;;37.76;69.68;100268.31;5385756;26;68694;-32
2024/04/19 09:06:43;;;;;;;2.78;1.90;;;;;;;37.77;70.60;100282.81;5385869;26;65103;-32
2024/04/19 09:09:16;;;;;;;4.50;1.67;;;;;;;37.77;70.13;100266.38;5404815;26;69353;-32
2024/04/19 09:11:49;;;;;;;1.58;1.45;;;;;;;37.55;70.52;100242.13;5408800;26;64695;-35
2024/04/19 09:14:21;;;;;;;2.50;2.30;;;;;;;37.75;69.86;100268.56;5395255;26;69143;-33
2024/04/19 09:16:52;;;;;;;;;;;;;;;37.66;70.06;100271.09;5379359;26;65545;-33
2024/04/19 09:19:24;;;;;;;4.63;1.60;;;;;;;37.67;69.95;100261.78;5383412;26;68247;-34
2024/04/19 09:21:55;;;;;;;2.85;2.15;;;;;;;37.62;70.51;100261.81;5382736;26;65264;-35
2024/04/19 09:24:29;;;;;;;5.00;2.10;;;;;;;37.54;70.87;100265.13;5387386;26;67760;-33
2024/04/19 09:27:08;;;;;;;2.28;2.05;;;;;;;37.46;70.71;100260.22;5403359;26;65553;-32
2024/04/19 09:29:46;;;;;;;2.90;1.85;;;;;;;37.51;70.24;100265.69;5366552;26;68847;-33
2024/04/19 09:32:24;;;;;;;4.43;1.95;;;;;;;37.45;70.62;100264.06;5394087;26;65460;-32
2024/04/19 09:34:58;;;;;;;3.92;1.92;;;;;;;37.34;70.22;100269.56;5401304;26;67756;-32
2024/04/19 09:37:30;;;;;;;6.47;2.30;;;;;;;36.99;70.04;100206.75;5381113;26;65244;-32
2024/04/19 09:40:06;;;;;;;5.32;2.25;;;;;;;37.24;70.77;100246.91;5384510;26;69444;-32
2024/04/19 09:42:38;;;;;;;5.15;2.15;;;;;;;37.34;70.97;100274.22;5384996;26;65066;-34
2024/04/19 09:45:18;;;;;;;6.85;2.78;;;;;;;36.90;70.44;100210.06;5386595;26;68234;-31
2024/04/19 09:47:54;;;;;;;3.50;2.35;;;;;;;37.25;70.19;100259.47;5384609;26;64744;-32
2024/04/19 09:50:30;;;;;;;4.93;2.00;;;;;;;37.03;70.38;100230.56;5378742;26;68570;-32
2024/04/19 09:53:06;;;;;;;10.45;2.40;;;;;;;37.04;71.32;100242.31;5403777;26;65175;-32
2024/04/19 09:56:03;;;;;;;2.88;1.80;;;;;;;37.14;70.90;100266.91;5381220;26;68472;-31
2024/04/19 09:58:35;;;;;;;3.63;2.13;;;;;;;37.14;71.32;100269.63;5363523;26;64763;-31
2024/04/19 10:01:06;;;;;;;2.58;2.00;;;;;;;37.16;70.58;100270.16;5393000;26;68637;-31
2024/04/19 10:03:37;;;;;;;2.45;1.67;;;;;;;37.10;71.06;100279.47;5389743;26;65165;-33
2024/04/19 10:06:13;;;;;;;2.03;1.40;;;;;;;37.06;70.62;100289.34;5376903;26;67659;-32
2024/04/19 10:08:45;;;;;;;2.25;1.80;;;;;;;37.01;70.52;100283.84;5383118;26;64750;-32
2024/04/19 10:11:17;;;;;;;3.65;2.00;;;;;;;37.00;70.98;100290.41;5387114;26;69426;-33
2024/04/19 10:13:52;;;;;;;2.92;2.17;;;;;;;37.01;71.23;100297.53;5397552;26;65434;-32
2024/04/19 10:16:27;;;;;;;2.00;1.35;;;;;;;36.98;70.79;100298.91;5385287;26;68820;-33
2024/04/19 10:19:00;;;;;;;3.17;1.83;;;;;;;36.88;71.13;100299.72;5389043;26;66177;-32
2024/04/19 10:21:36;;;;;;;2.50;2.00;;;;;;;36.91;69.97;100304.63;5375377;26;68137;-32
2024/04/19 10:24:17;;;;;;;3.50;2.08;;;;;;;36.86;71.06;100296.47;5397775;26;65249;-31
2024/04/19 10:26:55;;;;;;;2.92;2.03;;;;;;;36.81;71.26;100284.72;5383871;26;68565;-33
2024/04/19 10:29:26;;;;;;;7.63;1.60;;;;;;;36.82;70.99;100300.81;5373696;26;66202;-33
2024/04/19 10:31:57;;;;;;;3.28;1.60;;;;;;;36.77;71.03;100298.09;5392147;26;68776;-32
2024/04/19 10:34:32;;;;;;;3.35;1.70;;;;;;;36.79;71.03;100317.78;5386312;26;64991;-31
2024/04/19 10:37:03;;;;;;;24.70;2.38;;;;;;;36.71;71.37;100321.06;5382234;26;68274;-31
2024/04/19 10:39:36;;;;;;;27.95;3.00;;;;;;;36.51;71.65;100294.53;5388826;26;66234;-31
2024/04/19 10:42:08;;;;;;;11.43;2.78;;;;;;;36.63;72.33;100324.31;5395457;26;70823;-32
2024/04/19 10:44:41;;;;;;;3.97;2.08;;;;;;;36.68;71.91;100332.53;5394181;26;65213;-32
2024/04/19 10:47:13;;;;;;;8.57;2.22;;;;;;;36.61;72.69;100330.09;5375856;26;67867;-31
2024/04/19 10:49:45;;;;;;;6.43;1.88;;;;;;;36.61;72.67;100326.50;5382721;26;65201;-31
2024/04/19 10:52:23;;;;;;;5.20;2.30;;;;;;;36.58;73.42;100327.06;5373164;26;68043;-31
2024/04/19 10:54:54;;;;;;;5.53;2.63;;;;;;;36.58;73.89;100335.25;5387946;26;65420;-32
2024/04/19 10:57:31;;;;;;;3.35;2.03;;;;;;;36.53;74.22;100332.50;5388678;26;68729;-32
2024/04/19 11:00:02;;;;;;;3.45;1.92;;;;;;;36.52;73.64;100339.03;5386391;26;64061;-32
2024/04/19 11:02:33;;;;;;;;;;;;;;;36.40;74.13;100342.84;5386296;26;68496;-32
2024/04/19 11:05:06;;;;;;;3.70;2.42;;;;;;;36.44;73.69;100343.97;5386683;26;65052;-34
2024/04/19 11:07:40;;;;;;;2.92;2.10;;;;;;;36.39;75.23;100337.69;5391722;26;69521;-32
2024/04/19 11:10:11;;;;;;;4.55;2.30;;;;;;;36.44;74.10;100349.44;5379460;26;64883;-35
2024/04/19 11:12:44;;;;;;;3.27;2.53;;;;;;;36.35;74.52;100337.38;5366753;26;68734;-33
2024/04/19 11:15:17;;;;;;;2.90;2.60;;;;;;;36.34;75.11;100346.69;5420134;26;64111;-32
2024/04/19 11:17:47;;;;;;;3.30;2.47;;;;;;;36.27;75.80;100348.84;5393546;26;69147;-32
2024/04/19 11:20:20;;;;;;;5.00;3.00;;;;;;;36.13;75.89;100329.41;5386141;26;65421;-33
2024/04/19 11:22:51;;;;;;;3.33;2.20;;;;;;;36.28;75.83;100350.50;5402050;26;68579;-31
2024/04/19 11:25:22;;;;;;;4.30;1.95;;;;;;;36.25;75.88;100356.50;5392095;26;65095;-32
2024/04/19 11:27:54;;;;;;;2.70;2.50;;;;;;;36.23;76.19;100350.47;5384307;26;67786;-33
2024/04/19 11:30:28;;;;;;;3.20;2.63;;;;;;;36.21;76.85;100366.31;5384482;26;64118;-35
2024/04/19 11:33:01;;;;;;;5.50;2.90;;;;;;;36.13;76.65;100364.09;5367248;26;67933;-33
2024/04/19 11:35:40;;;;;;;3.50;2.40;;;;;;;35.93;77.93;100332.88;5405821;26;65181;-35
2024/04/19 11:38:16;;;;;;;6.97;2.95;;;;;;;36.10;77.19;100360.00;5386396;26;68105;-32
2024/04/19 11:40:50;;;;;;;7.50;2.85;;;;;;;35.91;76.24;100340.53;5384502;26;65131;-32
2024/04/19 11:43:22;;;;;;;4.63;2.35;;;;;;;36.06;76.97;100385.38;5375555;26;69210;-32
2024/04/19 11:45:56;;;;;;;3.23;2.73;;;;;;;36.02;77.41;100385.91;5395379;26;64236;-33
2024/04/19 11:48:30;;;;;;;2.90;2.60;;;;;;;35.99;77.02;100383.66;5387658;26;68605;-32
2024/04/19 11:51:04;;;;;;;2.72;2.30;;;;;;;35.99;77.74;100386.41;5394537;26;64165;-34
2024/04/19 11:53:35;;;;;;;5.00;2.70;;;;;;;35.95;77.14;100379.84;5380881;26;68824;-33